sensor_id;sensor_type;location;lat;lon;timestamp;temperature;humidity
27559;DHT22;15002;52.028;5.670;2023-11-22T00:01:19;8.00;99.90
27559;DHT22;15002;52.028;5.670;2023-11-22T00:03:45;8.00;99.90
27559;DHT22;15002;52.028;5.670;2023-11-22T00:06:11;7.90;99.90
27559;DHT22;15002;52.028;5.670;2023-11-22T00:08:37;7.80;99.90
27559;DHT22;15002;52.028;5.670;2023-11-22T00:11:03;7.60;99.90
27559;DHT22;15002;52.028;5.670;2023-11-22T00:13:29;7.60;99.90
27559;DHT22;15002;52.028;5.670;2023-11-22T00:15:54;7.60;99.90
27559;DHT22;15002;52.028;5.670;2023-11-22T00:18:22;7.50;99.90
27559;DHT22;15002;52.028;5.670;2023-11-22T00:20:48;7.60;99.90
27559;DHT22;15002;52.028;5.670;2023-11-22T00:23:14;7.50;99.90
27559;DHT22;15002;52.028;5.670;2023-11-22T00:25:40;7.30;99.90
27559;DHT22;15002;52.028;5.670;2023-11-22T00:28:05;7.30;99.90
27559;DHT22;15002;52.028;5.670;2023-11-22T00:30:32;7.40;99.90
27559;DHT22;15002;52.028;5.670;2023-11-22T00:32:58;7.20;99.90
27559;DHT22;15002;52.028;5.670;2023-11-22T00:35:23;7.30;99.90
27559;DHT22;15002;52.028;5.670;2023-11-22T00:37:49;7.20;99.90
27559;DHT22;15002;52.028;5.670;2023-11-22T00:40:14;7.20;99.90
27559;DHT22;15002;52.028;5.670;2023-11-22T00:42:40;7.30;99.90
27559;DHT22;15002;52.028;5.670;2023-11-22T00:45:10;7.20;99.90
27559;DHT22;15002;52.028;5.670;2023-11-22T00:47:36;7.10;99.90
27559;DHT22;15002;52.028;5.670;2023-11-22T00:50:03;7.00;99.90
27559;DHT22;15002;52.028;5.670;2023-11-22T00:52:30;7.00;99.90
27559;DHT22;15002;52.028;5.670;2023-11-22T00:54:56;6.90;99.90
27559;DHT22;15002;52.028;5.670;2023-11-22T00:57:22;6.80;99.90
27559;DHT22;15002;52.028;5.670;2023-11-22T00:59:47;6.70;99.90
27559;DHT22;15002;52.028;5.670;2023-11-22T01:02:13;6.80;99.90
27559;DHT22;15002;52.028;5.670;2023-11-22T01:04:39;6.80;99.90
27559;DHT22;15002;52.028;5.670;2023-11-22T01:07:05;6.70;99.90
27559;DHT22;15002;52.028;5.670;2023-11-22T01:09:32;6.80;99.90
27559;DHT22;15002;52.028;5.670;2023-11-22T01:11:58;6.70;99.90
27559;DHT22;15002;52.028;5.670;2023-11-22T01:14:24;6.80;99.90
27559;DHT22;15002;52.028;5.670;2023-11-22T01:16:51;6.50;99.90
27559;DHT22;15002;52.028;5.670;2023-11-22T01:19:17;6.70;99.90
27559;DHT22;15002;52.028;5.670;2023-11-22T01:21:43;6.50;99.90
27559;DHT22;15002;52.028;5.670;2023-11-22T01:24:09;6.60;99.90
27559;DHT22;15002;52.028;5.670;2023-11-22T01:26:35;6.60;99.90
27559;DHT22;15002;52.028;5.670;2023-11-22T01:29:00;6.60;99.90
27559;DHT22;15002;52.028;5.670;2023-11-22T01:31:27;6.60;99.90
27559;DHT22;15002;52.028;5.670;2023-11-22T01:33:54;6.70;99.90
27559;DHT22;15002;52.028;5.670;2023-11-22T01:36:20;6.90;99.90
27559;DHT22;15002;52.028;5.670;2023-11-22T01:38:45;6.70;99.90
27559;DHT22;15002;52.028;5.670;2023-11-22T01:41:14;6.60;99.90
27559;DHT22;15002;52.028;5.670;2023-11-22T01:43:40;6.90;99.90
27559;DHT22;15002;52.028;5.670;2023-11-22T01:46:07;6.90;99.90
27559;DHT22;15002;52.028;5.670;2023-11-22T01:48:34;7.00;99.90
27559;DHT22;15002;52.028;5.670;2023-11-22T01:51:01;7.00;99.90
27559;DHT22;15002;52.028;5.670;2023-11-22T01:53:27;7.00;99.90
27559;DHT22;15002;52.028;5.670;2023-11-22T01:55:53;7.00;99.90
27559;DHT22;15002;52.028;5.670;2023-11-22T01:58:18;6.80;99.90
27559;DHT22;15002;52.028;5.670;2023-11-22T02:00:51;6.80;99.90
27559;DHT22;15002;52.028;5.670;2023-11-22T02:03:18;6.70;99.90
27559;DHT22;15002;52.028;5.670;2023-11-22T02:05:44;6.60;99.90
27559;DHT22;15002;52.028;5.670;2023-11-22T02:08:11;6.50;99.90
27559;DHT22;15002;52.028;5.670;2023-11-22T02:10:37;6.50;99.90
27559;DHT22;15002;52.028;5.670;2023-11-22T02:13:07;6.40;99.90
27559;DHT22;15002;52.028;5.670;2023-11-22T02:15:34;6.30;99.90
27559;DHT22;15002;52.028;5.670;2023-11-22T02:18:00;6.30;99.90
27559;DHT22;15002;52.028;5.670;2023-11-22T02:20:25;6.30;99.90
27559;DHT22;15002;52.028;5.670;2023-11-22T02:22:51;6.40;99.90
27559;DHT22;15002;52.028;5.670;2023-11-22T02:25:18;6.40;99.90
27559;DHT22;15002;52.028;5.670;2023-11-22T02:27:44;6.40;99.90
27559;DHT22;15002;52.028;5.670;2023-11-22T02:30:10;6.20;99.90
27559;DHT22;15002;52.028;5.670;2023-11-22T02:32:36;6.10;99.90
27559;DHT22;15002;52.028;5.670;2023-11-22T02:35:02;6.20;99.90
27559;DHT22;15002;52.028;5.670;2023-11-22T02:37:32;6.10;99.90
27559;DHT22;15002;52.028;5.670;2023-11-22T02:40:16;6.10;99.90
27559;DHT22;15002;52.028;5.670;2023-11-22T02:42:49;6.10;99.90
27559;DHT22;15002;52.028;5.670;2023-11-22T02:45:21;6.10;99.90
27559;DHT22;15002;52.028;5.670;2023-11-22T02:47:49;6.10;99.90
27559;DHT22;15002;52.028;5.670;2023-11-22T02:50:16;6.10;99.90
27559;DHT22;15002;52.028;5.670;2023-11-22T02:52:42;6.10;99.90
27559;DHT22;15002;52.028;5.670;2023-11-22T02:55:09;6.10;99.90
27559;DHT22;15002;52.028;5.670;2023-11-22T02:57:35;6.00;99.90
27559;DHT22;15002;52.028;5.670;2023-11-22T03:00:03;5.90;99.90
27559;DHT22;15002;52.028;5.670;2023-11-22T03:02:30;6.10;99.90
27559;DHT22;15002;52.028;5.670;2023-11-22T03:04:57;6.10;99.90
27559;DHT22;15002;52.028;5.670;2023-11-22T03:07:25;6.30;99.90
27559;DHT22;15002;52.028;5.670;2023-11-22T03:09:50;6.30;99.90
27559;DHT22;15002;52.028;5.670;2023-11-22T03:12:16;6.30;99.90
27559;DHT22;15002;52.028;5.670;2023-11-22T03:14:43;6.20;99.90
27559;DHT22;15002;52.028;5.670;2023-11-22T03:17:09;6.10;99.90
27559;DHT22;15002;52.028;5.670;2023-11-22T03:19:34;6.30;99.90
27559;DHT22;15002;52.028;5.670;2023-11-22T03:22:01;6.40;99.90
27559;DHT22;15002;52.028;5.670;2023-11-22T03:24:28;6.20;99.90
27559;DHT22;15002;52.028;5.670;2023-11-22T03:26:55;6.10;99.90
27559;DHT22;15002;52.028;5.670;2023-11-22T03:29:27;6.20;99.90
27559;DHT22;15002;52.028;5.670;2023-11-22T03:31:52;6.10;99.90
27559;DHT22;15002;52.028;5.670;2023-11-22T03:34:19;6.30;99.90
27559;DHT22;15002;52.028;5.670;2023-11-22T03:36:45;6.20;99.90
27559;DHT22;15002;52.028;5.670;2023-11-22T03:39:10;6.20;99.90
27559;DHT22;15002;52.028;5.670;2023-11-22T03:41:36;6.10;99.90
27559;DHT22;15002;52.028;5.670;2023-11-22T03:44:05;6.10;99.90
27559;DHT22;15002;52.028;5.670;2023-11-22T03:46:34;6.00;99.90
27559;DHT22;15002;52.028;5.670;2023-11-22T03:49:02;6.10;99.90
27559;DHT22;15002;52.028;5.670;2023-11-22T03:51:28;6.10;99.90
27559;DHT22;15002;52.028;5.670;2023-11-22T03:53:54;6.00;99.90
27559;DHT22;15002;52.028;5.670;2023-11-22T03:56:19;6.00;99.90
27559;DHT22;15002;52.028;5.670;2023-11-22T03:58:45;6.10;99.90
27559;DHT22;15002;52.028;5.670;2023-11-22T04:01:11;6.00;99.90
27559;DHT22;15002;52.028;5.670;2023-11-22T04:03:36;6.00;99.90
27559;DHT22;15002;52.028;5.670;2023-11-22T04:06:03;6.00;99.90
27559;DHT22;15002;52.028;5.670;2023-11-22T04:08:28;5.80;99.90
27559;DHT22;15002;52.028;5.670;2023-11-22T04:10:54;5.80;99.90
27559;DHT22;15002;52.028;5.670;2023-11-22T04:13:20;5.70;99.90
27559;DHT22;15002;52.028;5.670;2023-11-22T04:15:46;5.60;99.90
27559;DHT22;15002;52.028;5.670;2023-11-22T04:18:11;5.60;99.90
27559;DHT22;15002;52.028;5.670;2023-11-22T04:20:37;5.70;99.90
27559;DHT22;15002;52.028;5.670;2023-11-22T04:23:03;5.60;99.90
27559;DHT22;15002;52.028;5.670;2023-11-22T04:25:28;5.50;99.90
27559;DHT22;15002;52.028;5.670;2023-11-22T04:27:54;5.50;99.90
27559;DHT22;15002;52.028;5.670;2023-11-22T04:30:20;5.50;99.90
27559;DHT22;15002;52.028;5.670;2023-11-22T04:32:45;5.50;99.90
27559;DHT22;15002;52.028;5.670;2023-11-22T04:35:12;5.60;99.90
27559;DHT22;15002;52.028;5.670;2023-11-22T04:37:38;5.60;99.90
27559;DHT22;15002;52.028;5.670;2023-11-22T04:40:04;5.60;99.90
27559;DHT22;15002;52.028;5.670;2023-11-22T04:42:36;5.50;99.90
27559;DHT22;15002;52.028;5.670;2023-11-22T04:45:03;5.50;99.90
27559;DHT22;15002;52.028;5.670;2023-11-22T04:47:29;5.50;99.90
27559;DHT22;15002;52.028;5.670;2023-11-22T04:49:54;5.50;99.90
27559;DHT22;15002;52.028;5.670;2023-11-22T04:52:20;5.40;99.90
27559;DHT22;15002;52.028;5.670;2023-11-22T04:54:46;5.30;99.90
27559;DHT22;15002;52.028;5.670;2023-11-22T04:57:11;5.20;99.90
27559;DHT22;15002;52.028;5.670;2023-11-22T04:59:37;5.20;99.90
27559;DHT22;15002;52.028;5.670;2023-11-22T05:02:04;5.20;99.90
27559;DHT22;15002;52.028;5.670;2023-11-22T05:04:29;5.10;99.90
27559;DHT22;15002;52.028;5.670;2023-11-22T05:06:56;5.20;99.90
27559;DHT22;15002;52.028;5.670;2023-11-22T05:09:21;5.30;99.90
27559;DHT22;15002;52.028;5.670;2023-11-22T05:11:47;5.20;99.90
27559;DHT22;15002;52.028;5.670;2023-11-22T05:14:13;5.10;99.90
27559;DHT22;15002;52.028;5.670;2023-11-22T05:16:38;5.20;99.90
27559;DHT22;15002;52.028;5.670;2023-11-22T05:19:04;5.20;99.90
27559;DHT22;15002;52.028;5.670;2023-11-22T05:21:31;5.20;99.90
27559;DHT22;15002;52.028;5.670;2023-11-22T05:23:58;5.40;99.90
27559;DHT22;15002;52.028;5.670;2023-11-22T05:26:23;5.40;99.90
27559;DHT22;15002;52.028;5.670;2023-11-22T05:28:49;5.50;99.90
27559;DHT22;15002;52.028;5.670;2023-11-22T05:31:14;5.40;99.90
27559;DHT22;15002;52.028;5.670;2023-11-22T05:33:40;5.40;99.90
27559;DHT22;15002;52.028;5.670;2023-11-22T05:36:06;5.50;99.90
27559;DHT22;15002;52.028;5.670;2023-11-22T05:38:32;5.30;99.90
27559;DHT22;15002;52.028;5.670;2023-11-22T05:41:01;5.00;99.90
27559;DHT22;15002;52.028;5.670;2023-11-22T05:43:27;4.80;99.90
27559;DHT22;15002;52.028;5.670;2023-11-22T05:45:53;4.90;99.90
27559;DHT22;15002;52.028;5.670;2023-11-22T05:48:19;4.90;99.90
27559;DHT22;15002;52.028;5.670;2023-11-22T05:50:46;4.90;99.90
27559;DHT22;15002;52.028;5.670;2023-11-22T05:53:12;5.10;99.90
27559;DHT22;15002;52.028;5.670;2023-11-22T05:55:37;5.30;99.90
27559;DHT22;15002;52.028;5.670;2023-11-22T05:58:03;5.30;99.90
27559;DHT22;15002;52.028;5.670;2023-11-22T06:00:29;5.30;99.90
27559;DHT22;15002;52.028;5.670;2023-11-22T06:02:55;5.40;99.90
27559;DHT22;15002;52.028;5.670;2023-11-22T06:05:21;5.40;99.90
27559;DHT22;15002;52.028;5.670;2023-11-22T06:07:47;5.50;99.90
27559;DHT22;15002;52.028;5.670;2023-11-22T06:10:16;5.50;99.90
27559;DHT22;15002;52.028;5.670;2023-11-22T06:12:42;5.60;99.90
27559;DHT22;15002;52.028;5.670;2023-11-22T06:15:09;5.80;99.90
27559;DHT22;15002;52.028;5.670;2023-11-22T06:17:35;5.90;99.90
27559;DHT22;15002;52.028;5.670;2023-11-22T06:20:00;6.10;99.90
27559;DHT22;15002;52.028;5.670;2023-11-22T06:22:26;5.80;99.90
27559;DHT22;15002;52.028;5.670;2023-11-22T06:24:52;5.60;99.90
27559;DHT22;15002;52.028;5.670;2023-11-22T06:27:18;5.60;99.90
27559;DHT22;15002;52.028;5.670;2023-11-22T06:29:43;5.70;99.90
27559;DHT22;15002;52.028;5.670;2023-11-22T06:32:09;5.70;99.90
27559;DHT22;15002;52.028;5.670;2023-11-22T06:34:36;5.90;99.90
27559;DHT22;15002;52.028;5.670;2023-11-22T06:37:02;6.20;99.90
27559;DHT22;15002;52.028;5.670;2023-11-22T06:39:28;6.40;99.90
27559;DHT22;15002;52.028;5.670;2023-11-22T06:41:53;6.30;99.90
27559;DHT22;15002;52.028;5.670;2023-11-22T06:44:20;6.00;99.90
27559;DHT22;15002;52.028;5.670;2023-11-22T06:46:46;5.90;99.90
27559;DHT22;15002;52.028;5.670;2023-11-22T06:49:13;5.80;99.90
27559;DHT22;15002;52.028;5.670;2023-11-22T06:51:39;5.90;99.90
27559;DHT22;15002;52.028;5.670;2023-11-22T06:54:05;5.90;99.90
27559;DHT22;15002;52.028;5.670;2023-11-22T06:56:32;6.10;99.90
27559;DHT22;15002;52.028;5.670;2023-11-22T06:58:58;6.40;99.90
27559;DHT22;15002;52.028;5.670;2023-11-22T07:01:24;6.60;99.90
27559;DHT22;15002;52.028;5.670;2023-11-22T07:03:51;6.60;99.90
27559;DHT22;15002;52.028;5.670;2023-11-22T07:06:17;6.60;99.90
27559;DHT22;15002;52.028;5.670;2023-11-22T07:08:44;7.00;99.90
27559;DHT22;15002;52.028;5.670;2023-11-22T07:11:11;7.00;99.90
27559;DHT22;15002;52.028;5.670;2023-11-22T07:13:36;7.10;99.90
27559;DHT22;15002;52.028;5.670;2023-11-22T07:16:04;6.70;99.90
27559;DHT22;15002;52.028;5.670;2023-11-22T07:18:30;6.50;99.90
27559;DHT22;15002;52.028;5.670;2023-11-22T07:20:57;6.60;99.90
27559;DHT22;15002;52.028;5.670;2023-11-22T07:23:25;6.50;99.90
27559;DHT22;15002;52.028;5.670;2023-11-22T07:25:52;6.40;99.90
27559;DHT22;15002;52.028;5.670;2023-11-22T07:28:18;6.50;99.90
27559;DHT22;15002;52.028;5.670;2023-11-22T07:30:44;6.40;99.90
27559;DHT22;15002;52.028;5.670;2023-11-22T07:33:10;6.30;99.90
27559;DHT22;15002;52.028;5.670;2023-11-22T07:35:36;6.30;99.90
27559;DHT22;15002;52.028;5.670;2023-11-22T07:38:02;6.30;99.90
27559;DHT22;15002;52.028;5.670;2023-11-22T07:40:29;6.40;99.90
27559;DHT22;15002;52.028;5.670;2023-11-22T07:42:54;6.60;99.90
27559;DHT22;15002;52.028;5.670;2023-11-22T07:45:20;6.40;99.90
27559;DHT22;15002;52.028;5.670;2023-11-22T07:47:46;6.30;99.90
27559;DHT22;15002;52.028;5.670;2023-11-22T07:50:12;6.70;99.90
27559;DHT22;15002;52.028;5.670;2023-11-22T07:52:38;7.00;99.90
27559;DHT22;15002;52.028;5.670;2023-11-22T07:55:05;7.30;99.90
27559;DHT22;15002;52.028;5.670;2023-11-22T07:57:34;7.50;99.90
27559;DHT22;15002;52.028;5.670;2023-11-22T07:59:59;7.20;99.90
27559;DHT22;15002;52.028;5.670;2023-11-22T08:02:26;7.50;99.90
27559;DHT22;15002;52.028;5.670;2023-11-22T08:04:52;7.60;99.90
27559;DHT22;15002;52.028;5.670;2023-11-22T08:07:18;7.70;99.90
27559;DHT22;15002;52.028;5.670;2023-11-22T08:09:44;7.70;99.90
27559;DHT22;15002;52.028;5.670;2023-11-22T08:12:10;7.60;99.90
27559;DHT22;15002;52.028;5.670;2023-11-22T08:14:37;7.30;99.90
27559;DHT22;15002;52.028;5.670;2023-11-22T08:17:04;7.30;99.90
27559;DHT22;15002;52.028;5.670;2023-11-22T08:19:31;7.20;99.90
27559;DHT22;15002;52.028;5.670;2023-11-22T08:21:57;7.30;99.90
27559;DHT22;15002;52.028;5.670;2023-11-22T08:24:22;7.10;99.90
27559;DHT22;15002;52.028;5.670;2023-11-22T08:26:48;7.10;99.90
27559;DHT22;15002;52.028;5.670;2023-11-22T08:29:14;7.20;99.90
27559;DHT22;15002;52.028;5.670;2023-11-22T08:31:40;7.30;99.90
27559;DHT22;15002;52.028;5.670;2023-11-22T08:34:06;7.20;99.90
27559;DHT22;15002;52.028;5.670;2023-11-22T08:36:35;7.10;99.90
27559;DHT22;15002;52.028;5.670;2023-11-22T08:39:02;7.10;99.90
27559;DHT22;15002;52.028;5.670;2023-11-22T08:41:29;7.20;99.90
27559;DHT22;15002;52.028;5.670;2023-11-22T08:43:56;7.30;99.90
27559;DHT22;15002;52.028;5.670;2023-11-22T08:46:22;7.50;99.90
27559;DHT22;15002;52.028;5.670;2023-11-22T08:48:49;7.70;99.90
27559;DHT22;15002;52.028;5.670;2023-11-22T08:51:14;8.00;99.90
27559;DHT22;15002;52.028;5.670;2023-11-22T08:53:40;8.00;99.90
27559;DHT22;15002;52.028;5.670;2023-11-22T08:56:06;8.10;99.90
27559;DHT22;15002;52.028;5.670;2023-11-22T08:58:34;8.00;99.90
27559;DHT22;15002;52.028;5.670;2023-11-22T09:01:00;7.80;99.90
27559;DHT22;15002;52.028;5.670;2023-11-22T09:03:25;7.80;99.90
27559;DHT22;15002;52.028;5.670;2023-11-22T09:05:52;8.00;99.90
27559;DHT22;15002;52.028;5.670;2023-11-22T09:08:19;8.20;99.90
27559;DHT22;15002;52.028;5.670;2023-11-22T09:10:46;8.40;99.90
27559;DHT22;15002;52.028;5.670;2023-11-22T09:13:12;8.70;99.90
27559;DHT22;15002;52.028;5.670;2023-11-22T09:15:42;8.60;99.90
27559;DHT22;15002;52.028;5.670;2023-11-22T09:18:10;8.60;99.90
27559;DHT22;15002;52.028;5.670;2023-11-22T09:20:38;8.50;99.90
27559;DHT22;15002;52.028;5.670;2023-11-22T09:23:04;8.40;99.90
27559;DHT22;15002;52.028;5.670;2023-11-22T09:25:30;8.20;99.90
27559;DHT22;15002;52.028;5.670;2023-11-22T09:27:57;8.20;99.90
27559;DHT22;15002;52.028;5.670;2023-11-22T09:30:28;8.40;99.90
27559;DHT22;15002;52.028;5.670;2023-11-22T09:33:23;8.50;99.90
27559;DHT22;15002;52.028;5.670;2023-11-22T09:35:49;8.50;99.90
27559;DHT22;15002;52.028;5.670;2023-11-22T09:38:15;8.60;99.90
27559;DHT22;15002;52.028;5.670;2023-11-22T09:40:42;9.00;99.90
27559;DHT22;15002;52.028;5.670;2023-11-22T09:43:09;8.90;99.90
27559;DHT22;15002;52.028;5.670;2023-11-22T09:45:35;8.80;99.90
27559;DHT22;15002;52.028;5.670;2023-11-22T09:48:07;8.80;99.90
27559;DHT22;15002;52.028;5.670;2023-11-22T09:50:55;8.90;99.90
27559;DHT22;15002;52.028;5.670;2023-11-22T09:53:29;9.10;99.90
27559;DHT22;15002;52.028;5.670;2023-11-22T09:55:57;9.20;99.90
27559;DHT22;15002;52.028;5.670;2023-11-22T09:58:23;9.00;99.90
27559;DHT22;15002;52.028;5.670;2023-11-22T10:00:50;8.70;99.90
27559;DHT22;15002;52.028;5.670;2023-11-22T10:03:18;8.60;99.90
27559;DHT22;15002;52.028;5.670;2023-11-22T10:05:43;8.70;99.90
27559;DHT22;15002;52.028;5.670;2023-11-22T10:08:09;8.80;99.90
27559;DHT22;15002;52.028;5.670;2023-11-22T10:10:37;8.90;99.90
27559;DHT22;15002;52.028;5.670;2023-11-22T10:13:03;8.90;99.90
27559;DHT22;15002;52.028;5.670;2023-11-22T10:15:29;9.10;99.90
27559;DHT22;15002;52.028;5.670;2023-11-22T10:17:56;9.30;99.90
27559;DHT22;15002;52.028;5.670;2023-11-22T10:20:35;9.40;99.90
27559;DHT22;15002;52.028;5.670;2023-11-22T10:23:01;9.40;99.90
27559;DHT22;15002;52.028;5.670;2023-11-22T10:25:26;9.40;99.90
27559;DHT22;15002;52.028;5.670;2023-11-22T10:27:52;9.40;99.90
27559;DHT22;15002;52.028;5.670;2023-11-22T10:30:18;9.30;99.90
27559;DHT22;15002;52.028;5.670;2023-11-22T10:32:45;9.40;99.90
27559;DHT22;15002;52.028;5.670;2023-11-22T10:35:11;9.60;99.90
27559;DHT22;15002;52.028;5.670;2023-11-22T10:37:41;9.40;99.90
27559;DHT22;15002;52.028;5.670;2023-11-22T10:40:12;9.10;99.90
27559;DHT22;15002;52.028;5.670;2023-11-22T10:42:40;9.30;99.90
27559;DHT22;15002;52.028;5.670;2023-11-22T10:45:08;9.30;99.90
27559;DHT22;15002;52.028;5.670;2023-11-22T10:47:38;9.40;99.90
27559;DHT22;15002;52.028;5.670;2023-11-22T10:50:07;9.80;99.90
27559;DHT22;15002;52.028;5.670;2023-11-22T10:52:35;9.90;99.90
27559;DHT22;15002;52.028;5.670;2023-11-22T10:55:04;9.60;99.90
27559;DHT22;15002;52.028;5.670;2023-11-22T10:57:34;9.50;99.90
27559;DHT22;15002;52.028;5.670;2023-11-22T11:00:03;9.50;99.90
27559;DHT22;15002;52.028;5.670;2023-11-22T11:02:40;9.40;99.90
27559;DHT22;15002;52.028;5.670;2023-11-22T11:05:25;9.60;99.90
27559;DHT22;15002;52.028;5.670;2023-11-22T11:08:02;9.60;99.90
27559;DHT22;15002;52.028;5.670;2023-11-22T11:10:32;9.70;99.90
27559;DHT22;15002;52.028;5.670;2023-11-22T11:12:58;9.80;99.90
27559;DHT22;15002;52.028;5.670;2023-11-22T11:15:24;9.90;99.90
27559;DHT22;15002;52.028;5.670;2023-11-22T11:17:51;9.70;99.90
27559;DHT22;15002;52.028;5.670;2023-11-22T11:20:17;9.80;99.90
27559;DHT22;15002;52.028;5.670;2023-11-22T11:22:47;9.50;99.90
27559;DHT22;15002;52.028;5.670;2023-11-22T11:25:18;9.70;99.90
27559;DHT22;15002;52.028;5.670;2023-11-22T11:27:56;9.80;99.90
27559;DHT22;15002;52.028;5.670;2023-11-22T11:30:47;10.20;99.90
27559;DHT22;15002;52.028;5.670;2023-11-22T11:33:15;10.40;99.90
27559;DHT22;15002;52.028;5.670;2023-11-22T11:35:49;10.20;99.90
27559;DHT22;15002;52.028;5.670;2023-11-22T11:38:19;10.30;99.90
27559;DHT22;15002;52.028;5.670;2023-11-22T11:40:52;10.20;99.90
27559;DHT22;15002;52.028;5.670;2023-11-22T11:43:48;10.20;99.90
27559;DHT22;15002;52.028;5.670;2023-11-22T11:46:17;10.10;99.90
27559;DHT22;15002;52.028;5.670;2023-11-22T11:49:06;9.90;99.90
27559;DHT22;15002;52.028;5.670;2023-11-22T11:51:35;10.10;99.90
27559;DHT22;15002;52.028;5.670;2023-11-22T11:54:01;10.00;99.90
27559;DHT22;15002;52.028;5.670;2023-11-22T11:56:27;9.90;99.90
27559;DHT22;15002;52.028;5.670;2023-11-22T11:58:57;9.90;99.90
27559;DHT22;15002;52.028;5.670;2023-11-22T12:01:28;9.50;99.90
27559;DHT22;15002;52.028;5.670;2023-11-22T12:03:55;9.50;99.90
27559;DHT22;15002;52.028;5.670;2023-11-22T12:06:21;9.40;99.90
27559;DHT22;15002;52.028;5.670;2023-11-22T12:08:47;9.30;99.90
27559;DHT22;15002;52.028;5.670;2023-11-22T12:11:13;9.30;99.90
27559;DHT22;15002;52.028;5.670;2023-11-22T12:13:39;9.10;99.90
27559;DHT22;15002;52.028;5.670;2023-11-22T12:16:09;9.20;99.90
27559;DHT22;15002;52.028;5.670;2023-11-22T12:18:43;9.30;99.90
27559;DHT22;15002;52.028;5.670;2023-11-22T12:21:09;9.30;99.90
27559;DHT22;15002;52.028;5.670;2023-11-22T12:23:39;9.50;99.90
27559;DHT22;15002;52.028;5.670;2023-11-22T12:26:09;9.50;99.90
27559;DHT22;15002;52.028;5.670;2023-11-22T12:28:36;9.70;99.90
27559;DHT22;15002;52.028;5.670;2023-11-22T12:31:09;9.70;99.90
27559;DHT22;15002;52.028;5.670;2023-11-22T12:33:38;9.60;99.90
27559;DHT22;15002;52.028;5.670;2023-11-22T12:36:05;9.50;99.90
27559;DHT22;15002;52.028;5.670;2023-11-22T12:38:31;9.40;99.90
27559;DHT22;15002;52.028;5.670;2023-11-22T12:40:58;9.30;99.90
27559;DHT22;15002;52.028;5.670;2023-11-22T12:43:24;9.30;99.90
27559;DHT22;15002;52.028;5.670;2023-11-22T12:46:02;9.30;99.90
27559;DHT22;15002;52.028;5.670;2023-11-22T12:48:28;9.20;99.90
27559;DHT22;15002;52.028;5.670;2023-11-22T12:50:58;9.20;99.90
27559;DHT22;15002;52.028;5.670;2023-11-22T12:53:24;9.20;99.90
27559;DHT22;15002;52.028;5.670;2023-11-22T12:55:54;9.20;99.90
27559;DHT22;15002;52.028;5.670;2023-11-22T12:58:22;9.40;99.90
27559;DHT22;15002;52.028;5.670;2023-11-22T13:00:50;9.50;99.90
27559;DHT22;15002;52.028;5.670;2023-11-22T13:03:16;9.50;99.90
27559;DHT22;15002;52.028;5.670;2023-11-22T13:05:43;9.70;99.90
27559;DHT22;15002;52.028;5.670;2023-11-22T13:08:10;9.80;99.90
27559;DHT22;15002;52.028;5.670;2023-11-22T13:10:46;9.70;99.90
27559;DHT22;15002;52.028;5.670;2023-11-22T13:13:14;10.00;99.90
27559;DHT22;15002;52.028;5.670;2023-11-22T13:15:40;10.10;99.90
27559;DHT22;15002;52.028;5.670;2023-11-22T13:18:06;10.00;99.90
27559;DHT22;15002;52.028;5.670;2023-11-22T13:20:34;10.00;99.90
27559;DHT22;15002;52.028;5.670;2023-11-22T13:23:00;9.90;99.90
27559;DHT22;15002;52.028;5.670;2023-11-22T13:25:28;9.70;99.90
27559;DHT22;15002;52.028;5.670;2023-11-22T13:27:54;9.60;99.90
27559;DHT22;15002;52.028;5.670;2023-11-22T13:30:22;9.50;99.90
27559;DHT22;15002;52.028;5.670;2023-11-22T13:32:52;9.70;99.90
27559;DHT22;15002;52.028;5.670;2023-11-22T13:35:18;9.70;99.90
27559;DHT22;15002;52.028;5.670;2023-11-22T13:37:45;9.70;99.90
27559;DHT22;15002;52.028;5.670;2023-11-22T13:40:12;9.70;99.90
27559;DHT22;15002;52.028;5.670;2023-11-22T13:42:45;9.60;99.90
27559;DHT22;15002;52.028;5.670;2023-11-22T13:45:12;9.70;99.90
27559;DHT22;15002;52.028;5.670;2023-11-22T13:47:42;9.60;99.90
27559;DHT22;15002;52.028;5.670;2023-11-22T13:50:09;9.60;99.90
27559;DHT22;15002;52.028;5.670;2023-11-22T13:52:34;9.60;99.90
27559;DHT22;15002;52.028;5.670;2023-11-22T13:55:00;9.60;99.90
27559;DHT22;15002;52.028;5.670;2023-11-22T13:57:27;9.50;99.90
27559;DHT22;15002;52.028;5.670;2023-11-22T13:59:52;9.50;99.90
27559;DHT22;15002;52.028;5.670;2023-11-22T14:02:19;9.40;99.90
27559;DHT22;15002;52.028;5.670;2023-11-22T14:04:45;9.30;99.90
27559;DHT22;15002;52.028;5.670;2023-11-22T14:07:11;9.40;99.90
27559;DHT22;15002;52.028;5.670;2023-11-22T14:09:37;9.50;99.90
27559;DHT22;15002;52.028;5.670;2023-11-22T14:12:03;9.50;99.90
27559;DHT22;15002;52.028;5.670;2023-11-22T14:14:28;9.30;99.90
27559;DHT22;15002;52.028;5.670;2023-11-22T14:16:54;9.30;99.90
27559;DHT22;15002;52.028;5.670;2023-11-22T14:19:20;9.20;99.90
27559;DHT22;15002;52.028;5.670;2023-11-22T14:21:45;9.00;99.90
27559;DHT22;15002;52.028;5.670;2023-11-22T14:24:11;9.10;99.90
27559;DHT22;15002;52.028;5.670;2023-11-22T14:26:37;9.20;99.90
27559;DHT22;15002;52.028;5.670;2023-11-22T14:29:03;9.20;99.90
27559;DHT22;15002;52.028;5.670;2023-11-22T14:31:31;9.50;99.90
27559;DHT22;15002;52.028;5.670;2023-11-22T14:33:56;9.50;99.90
27559;DHT22;15002;52.028;5.670;2023-11-22T14:36:23;9.50;99.90
27559;DHT22;15002;52.028;5.670;2023-11-22T14:38:49;9.40;99.90
27559;DHT22;15002;52.028;5.670;2023-11-22T14:41:20;9.50;99.90
27559;DHT22;15002;52.028;5.670;2023-11-22T14:43:46;9.50;99.90
27559;DHT22;15002;52.028;5.670;2023-11-22T14:46:12;9.30;99.90
27559;DHT22;15002;52.028;5.670;2023-11-22T14:48:38;9.10;99.90
27559;DHT22;15002;52.028;5.670;2023-11-22T14:51:04;9.20;99.90
27559;DHT22;15002;52.028;5.670;2023-11-22T14:53:30;9.10;99.90
27559;DHT22;15002;52.028;5.670;2023-11-22T14:55:56;9.20;99.90
27559;DHT22;15002;52.028;5.670;2023-11-22T14:58:22;9.20;99.90
27559;DHT22;15002;52.028;5.670;2023-11-22T15:00:50;9.00;99.90
27559;DHT22;15002;52.028;5.670;2023-11-22T15:03:15;9.10;99.90
27559;DHT22;15002;52.028;5.670;2023-11-22T15:05:41;9.00;99.90
27559;DHT22;15002;52.028;5.670;2023-11-22T15:08:07;9.00;99.90
27559;DHT22;15002;52.028;5.670;2023-11-22T15:10:33;9.10;99.90
27559;DHT22;15002;52.028;5.670;2023-11-22T15:12:59;9.20;99.90
27559;DHT22;15002;52.028;5.670;2023-11-22T15:15:25;9.00;99.90
27559;DHT22;15002;52.028;5.670;2023-11-22T15:17:51;8.90;99.90
27559;DHT22;15002;52.028;5.670;2023-11-22T15:20:16;8.80;99.90
27559;DHT22;15002;52.028;5.670;2023-11-22T15:22:42;8.70;99.90
27559;DHT22;15002;52.028;5.670;2023-11-22T15:25:08;8.70;99.90
27559;DHT22;15002;52.028;5.670;2023-11-22T15:27:35;8.70;99.90
27559;DHT22;15002;52.028;5.670;2023-11-22T15:30:01;8.50;99.90
27559;DHT22;15002;52.028;5.670;2023-11-22T15:32:28;8.50;99.90
27559;DHT22;15002;52.028;5.670;2023-11-22T15:34:54;8.50;99.90
27559;DHT22;15002;52.028;5.670;2023-11-22T15:37:20;8.40;99.90
27559;DHT22;15002;52.028;5.670;2023-11-22T15:39:45;8.50;99.90
27559;DHT22;15002;52.028;5.670;2023-11-22T15:42:11;8.50;99.90
27559;DHT22;15002;52.028;5.670;2023-11-22T15:44:37;8.90;99.90